createdAt,value
2017-11-29T00:04:33.854Z,1.96
2017-11-29T00:10:37.606Z,1.87
2017-11-29T00:16:41.131Z,1.90
2017-11-29T00:22:44.659Z,1.84
2017-11-29T00:28:48.195Z,1.84
2017-11-29T00:34:54.099Z,1.83
2017-11-29T00:40:57.833Z,1.74
2017-11-29T00:47:02.197Z,1.51
2017-11-29T00:53:05.868Z,1.38
2017-11-29T00:59:09.407Z,1.20
2017-11-29T01:05:13.172Z,1.20
2017-11-29T01:11:16.765Z,1.19
2017-11-29T01:17:21.969Z,1.31
2017-11-29T01:29:36.186Z,1.46
2017-11-29T01:35:39.801Z,1.34
2017-11-29T01:41:43.365Z,1.12
2017-11-29T01:47:47.672Z,0.96
2017-11-29T01:53:51.424Z,0.98
2017-11-29T01:59:55.413Z,1.17
2017-11-29T02:06:03.488Z,1.36
2017-11-29T02:12:07.107Z,1.56
2017-11-29T02:18:10.657Z,1.62
2017-11-29T02:24:14.223Z,1.51
2017-11-29T02:30:17.782Z,1.36
2017-11-29T02:36:22.088Z,1.20
2017-11-29T02:42:38.319Z,1.26
2017-11-29T02:48:41.892Z,1.24
2017-11-29T02:54:45.621Z,1.04
2017-11-29T03:00:49.117Z,0.83
2017-11-29T03:06:53.525Z,0.85
2017-11-29T03:12:57.527Z,0.95
2017-11-29T03:19:02.181Z,0.97
2017-11-29T03:25:05.785Z,1.00
2017-11-29T03:31:09.398Z,1.06
2017-11-29T03:37:13.052Z,1.32
2017-11-29T03:43:16.867Z,1.46
2017-11-29T03:49:20.871Z,1.71
2017-11-29T03:55:25.156Z,1.94
2017-11-29T04:01:28.814Z,2.10
2017-11-29T04:07:32.376Z,2.11
2017-11-29T04:13:35.940Z,2.18
2017-11-29T04:19:39.523Z,2.27
2017-11-29T04:25:43.321Z,2.20
2017-11-29T04:31:46.882Z,1.95
2017-11-29T04:37:50.424Z,1.68
2017-11-29T04:43:54.491Z,1.50
2017-11-29T04:49:58.067Z,1.27
2017-11-29T04:56:01.795Z,1.19
2017-11-29T05:02:05.287Z,1.38
2017-11-29T05:08:09.201Z,1.48
2017-11-29T05:14:12.849Z,1.64
2017-11-29T05:20:16.367Z,1.62
2017-11-29T05:26:19.947Z,1.79
2017-11-29T05:32:23.736Z,1.97
2017-11-29T05:38:27.804Z,2.07
2017-11-29T05:44:31.324Z,2.19
2017-11-29T05:50:34.835Z,2.19
2017-11-29T05:56:38.369Z,2.24
2017-11-29T06:02:42.304Z,2.22
2017-11-29T06:08:45.852Z,2.17
2017-11-29T06:14:49.777Z,2.03
2017-11-29T06:20:54.034Z,2.05
2017-11-29T06:26:58.662Z,2.08
2017-11-29T06:33:02.534Z,2.08
2017-11-29T06:39:06.100Z,2.17
2017-11-29T06:45:09.679Z,2.14
2017-11-29T06:51:13.286Z,2.12
2017-11-29T06:57:17.108Z,2.12
2017-11-29T07:03:22.071Z,2.19
2017-11-29T07:09:26.013Z,2.22
2017-11-29T07:15:29.754Z,2.19
2017-11-29T07:21:33.292Z,2.27
2017-11-29T07:27:37.251Z,2.33
2017-11-29T07:33:40.955Z,2.41
2017-11-29T07:39:44.675Z,2.45
2017-11-29T07:45:48.211Z,2.61
2017-11-29T07:51:52.851Z,2.77
2017-11-29T07:57:56.450Z,2.83
2017-11-29T08:04:00.872Z,2.95
2017-11-29T08:10:04.454Z,3.07
2017-11-29T08:16:07.984Z,3.14
2017-11-29T08:22:11.784Z,3.14
2017-11-29T08:28:15.324Z,3.02
2017-11-29T08:34:18.942Z,3.09
2017-11-29T08:40:23.304Z,3.10
2017-11-29T08:46:26.918Z,3.13
2017-11-29T08:52:30.484Z,3.17
2017-11-29T08:58:34.709Z,3.18
2017-11-29T09:04:38.475Z,3.22
2017-11-29T09:10:42.117Z,3.17
2017-11-29T09:16:45.705Z,3.28
2017-11-29T09:22:49.629Z,3.36
2017-11-29T09:28:54.614Z,3.55
2017-11-29T09:34:58.250Z,3.56
2017-11-29T09:41:02.554Z,3.61
2017-11-29T09:47:06.109Z,3.77
2017-11-29T09:53:09.632Z,3.81
2017-11-29T09:59:13.891Z,3.83
2017-11-29T10:05:17.435Z,3.90
2017-11-29T10:11:21.287Z,3.98
2017-11-29T10:17:25.144Z,3.92
2017-11-29T10:23:28.923Z,3.87
2017-11-29T10:29:33.243Z,3.91
2017-11-29T10:35:36.910Z,3.87
2017-11-29T10:41:40.706Z,3.93
2017-11-29T10:47:44.342Z,4.05
2017-11-29T10:53:48.117Z,4.14
2017-11-29T10:59:52.103Z,4.19
2017-11-29T11:05:55.866Z,4.32
2017-11-29T11:11:59.528Z,4.41
2017-11-29T11:18:03.222Z,4.25
2017-11-29T11:24:06.777Z,4.14
2017-11-29T11:30:10.432Z,4.04
2017-11-29T11:36:14.045Z,3.98
2017-11-29T11:42:17.961Z,3.98
2017-11-29T11:48:21.903Z,4.11
2017-11-29T11:54:26.161Z,4.12
2017-11-29T12:00:30.513Z,4.05
2017-11-29T12:06:34.951Z,4.13
2017-11-29T12:12:38.744Z,4.16
2017-11-29T12:18:42.316Z,4.11
2017-11-29T12:24:45.901Z,4.20
2017-11-29T12:30:49.684Z,4.22
2017-11-29T12:36:53.772Z,4.31
2017-11-29T12:42:57.583Z,4.45
2017-11-29T12:49:19.059Z,4.50
2017-11-29T12:55:24.701Z,4.57
2017-11-29T13:01:28.491Z,4.58
2017-11-29T13:07:31.996Z,4.55
2017-11-29T13:13:35.538Z,4.52
2017-11-29T13:19:39.058Z,4.46
2017-11-29T13:25:42.742Z,4.47
2017-11-29T13:31:47.119Z,4.54
2017-11-29T13:37:51.465Z,4.61
2017-11-29T13:43:55.178Z,4.58
2017-11-29T13:49:58.711Z,4.57
2017-11-29T13:56:02.989Z,4.67
2017-11-29T14:02:06.479Z,4.64
2017-11-29T14:08:10.330Z,4.68
2017-11-29T14:14:13.886Z,4.70
2017-11-29T14:20:17.429Z,4.66
2017-11-29T14:26:21.458Z,4.68
2017-11-29T14:32:25.911Z,4.60
2017-11-29T14:38:29.428Z,4.51
2017-11-29T14:44:32.957Z,4.53
2017-11-29T14:50:36.510Z,4.44
2017-11-29T14:56:41.050Z,4.34
2017-11-29T15:02:44.617Z,4.29
2017-11-29T15:08:48.152Z,4.31
2017-11-29T15:14:51.812Z,4.22
2017-11-29T15:20:55.423Z,4.13
2017-11-29T15:26:59.823Z,4.15
2017-11-29T15:33:03.334Z,4.10
2017-11-29T15:39:07.775Z,4.13
2017-11-29T15:45:11.843Z,4.03
2017-11-29T15:51:15.361Z,4.03
2017-11-29T15:57:18.897Z,4.05
2017-11-29T16:03:23.215Z,4.04
2017-11-29T16:09:26.769Z,4.08
2017-11-29T16:15:30.300Z,4.02
2017-11-29T16:21:34.137Z,3.93
2017-11-29T16:27:38.573Z,3.93
2017-11-29T16:33:42.653Z,3.96
2017-11-29T16:39:46.576Z,3.99
2017-11-29T16:45:51.090Z,3.96
2017-11-29T16:51:54.844Z,4.01
2017-11-29T16:57:58.392Z,3.95
2017-11-29T17:04:01.968Z,3.83
2017-11-29T17:10:06.988Z,3.78
2017-11-29T17:16:11.316Z,3.69
2017-11-29T17:22:14.861Z,3.62
2017-11-29T17:28:18.408Z,3.59
2017-11-29T17:34:22.675Z,3.55
2017-11-29T17:40:26.537Z,3.51
2017-11-29T17:46:30.127Z,3.49
2017-11-29T17:52:33.687Z,3.48
2017-11-29T17:58:37.614Z,3.47
2017-11-29T18:04:41.187Z,3.31
2017-11-29T18:10:44.823Z,3.19
2017-11-29T18:16:48.440Z,3.01
2017-11-29T18:22:52.938Z,2.92
2017-11-29T18:28:57.352Z,2.90
2017-11-29T18:35:00.893Z,2.86
2017-11-29T18:41:04.615Z,3.01
2017-11-29T18:47:08.992Z,3.17
2017-11-29T18:53:13.349Z,3.31
2017-11-29T18:59:18.408Z,3.42
2017-11-29T19:05:22.221Z,3.54
2017-11-29T19:11:25.886Z,3.49
2017-11-29T19:17:29.429Z,3.48
2017-11-29T19:23:33.743Z,3.48
2017-11-29T19:29:37.257Z,3.43
2017-11-29T19:35:41.668Z,3.43
2017-11-29T19:41:45.229Z,3.52
2017-11-29T19:47:48.770Z,3.61
2017-11-29T19:53:52.397Z,3.56
2017-11-29T19:59:56.948Z,3.63
2017-11-29T20:06:00.552Z,3.68
2017-11-29T20:12:04.072Z,3.64
2017-11-29T20:18:07.645Z,3.63
2017-11-29T20:24:11.935Z,3.66
2017-11-29T20:30:15.494Z,3.60
2017-11-29T20:36:19.152Z,3.59
2017-11-29T20:42:22.777Z,3.52
2017-11-29T20:48:26.447Z,3.51
2017-11-29T20:54:30.099Z,3.49
2017-11-29T21:00:34.388Z,3.35
2017-11-29T21:06:37.930Z,3.27
2017-11-29T21:12:41.510Z,3.07
2017-11-29T21:18:45.069Z,2.85
2017-11-29T21:24:48.584Z,2.70
2017-11-29T21:30:52.107Z,2.57
2017-11-29T21:36:55.788Z,2.62
2017-11-29T21:42:59.353Z,2.67
2017-11-29T21:49:03.700Z,2.69
2017-11-29T21:55:07.427Z,2.72
2017-11-29T22:01:10.968Z,2.71
2017-11-29T22:07:14.551Z,2.72
2017-11-29T22:13:18.098Z,2.75
2017-11-29T22:19:21.700Z,3.17
2017-11-29T22:25:25.322Z,2.91
2017-11-29T22:31:28.863Z,2.84
2017-11-29T22:37:32.480Z,2.72
2017-11-29T22:43:36.031Z,2.56
2017-11-29T22:49:39.677Z,2.31
2017-11-29T22:55:43.227Z,2.08
2017-11-29T23:01:46.745Z,1.83
2017-11-29T23:07:51.041Z,1.64
2017-11-29T23:13:54.552Z,1.48
2017-11-29T23:19:58.169Z,1.45
2017-11-29T23:26:01.688Z,1.50
2017-11-29T23:32:05.262Z,1.55
2017-11-29T23:38:08.932Z,1.75
2017-11-29T23:44:12.636Z,1.88
2017-11-29T23:50:16.181Z,1.99
2017-11-29T23:56:20.510Z,2.01
